Time;durP1;ratioP1;P1;durP2;ratioP2;P2;SDS_P1;SDS_P2;PMS_P1;PMS_P2;Temp;Humidity;BMP_temperature;BMP_pressure;BME280_temperature;BME280_humidity;BME280_pressure;Samples;Min_cycle;Max_cycle;Signal;HPM_P1;HPM_P2
2021/10/18 00:00:44;;;;;;;9.25;7.80;;;10.60;99.90;;;;;;5089255;28;20054;-61
2021/10/18 00:03:09;;;;;;;11.80;8.27;;;10.60;99.90;;;;;;5091327;28;20047;-61
2021/10/18 00:05:35;;;;;;;10.35;8.10;;;10.60;99.90;;;;;;5091299;28;20028;-61
2021/10/18 00:08:00;;;;;;;10.75;8.15;;;10.60;99.90;;;;;;5090857;28;20521;-61
2021/10/18 00:10:26;;;;;;;12.88;8.18;;;10.60;99.90;;;;;;5089758;28;20032;-61
2021/10/18 00:12:52;;;;;;;11.02;8.95;;;10.50;99.90;;;;;;5080621;28;20073;-61
2021/10/18 00:15:18;;;;;;;10.20;8.27;;;10.50;99.90;;;;;;5088874;28;20046;-61
2021/10/18 00:17:45;;;;;;;8.95;8.02;;;10.50;99.90;;;;;;5085259;28;20574;-61
2021/10/18 00:20:12;;;;;;;11.10;8.25;;;10.50;99.90;;;;;;5079027;28;20481;-61
2021/10/18 00:22:38;;;;;;;11.35;8.77;;;10.50;99.90;;;;;;5088373;28;20101;-61
2021/10/18 00:25:05;;;;;;;11.35;8.77;;;10.50;99.90;;;;;;5089769;28;20524;-61
2021/10/18 00:27:30;;;;;;;10.43;8.25;;;10.50;99.90;;;;;;5090778;28;20618;-61
2021/10/18 00:29:56;;;;;;;11.18;8.57;;;10.50;99.90;;;;;;5088440;28;20052;-61
2021/10/18 00:32:21;;;;;;;10.13;8.85;;;10.50;99.90;;;;;;5086950;28;20507;-61
2021/10/18 00:34:47;;;;;;;12.25;9.00;;;10.40;99.90;;;;;;5086253;28;20040;-61
2021/10/18 00:37:12;;;;;;;10.80;9.13;;;10.40;99.90;;;;;;5088100;28;20047;-61
2021/10/18 00:39:38;;;;;;;10.45;8.93;;;10.50;99.90;;;;;;5087059;28;20028;-61
2021/10/18 00:42:04;;;;;;;13.50;9.05;;;10.40;99.90;;;;;;5088779;28;20393;-61
2021/10/18 00:44:31;;;;;;;12.10;8.90;;;10.40;99.90;;;;;;5086222;28;20989;-61
2021/10/18 00:46:57;;;;;;;10.68;9.13;;;10.50;99.90;;;;;;5086594;28;20115;-60
2021/10/18 00:49:23;;;;;;;12.45;8.40;;;10.40;99.90;;;;;;5086841;28;20382;-60
2021/10/18 00:51:49;;;;;;;12.55;9.05;;;10.50;99.90;;;;;;5089056;28;20063;-61
2021/10/18 00:54:15;;;;;;;12.50;9.10;;;10.50;99.90;;;;;;5089715;28;20048;-61
2021/10/18 00:56:41;;;;;;;10.98;9.02;;;10.50;99.90;;;;;;5088707;28;20551;-61
2021/10/18 00:59:07;;;;;;;11.25;9.15;;;10.50;99.90;;;;;;5089225;28;20052;-60
2021/10/18 01:01:33;;;;;;;10.95;9.85;;;10.50;99.90;;;;;;5090074;28;20584;-61
2021/10/18 01:04:00;;;;;;;12.18;9.50;;;10.40;99.90;;;;;;5087035;28;20119;-61
2021/10/18 01:06:26;;;;;;;18.50;10.57;;;10.40;99.90;;;;;;5088501;28;20043;-61
2021/10/18 01:08:51;;;;;;;11.10;9.65;;;10.40;99.90;;;;;;5089114;28;20036;-61
2021/10/18 01:11:17;;;;;;;12.43;9.25;;;10.50;99.90;;;;;;5089243;28;20822;-61
2021/10/18 01:13:43;;;;;;;11.35;9.38;;;10.40;99.90;;;;;;5088669;28;20051;-61
2021/10/18 01:16:09;;;;;;;11.65;9.85;;;10.50;99.90;;;;;;5089195;28;20050;-61
2021/10/18 01:18:35;;;;;;;11.25;10.05;;;10.50;99.90;;;;;;5083951;28;20032;-60
2021/10/18 01:21:01;;;;;;;12.75;9.10;;;10.40;99.90;;;;;;5086178;28;20044;-61
2021/10/18 01:23:27;;;;;;;14.50;10.88;;;10.50;99.90;;;;;;5087903;28;20042;-61
2021/10/18 01:25:52;;;;;;;12.65;10.20;;;10.50;99.90;;;;;;5088684;28;20031;-61
2021/10/18 01:28:18;;;;;;;12.23;10.57;;;10.50;99.90;;;;;;5093171;28;20035;-61
2021/10/18 01:30:44;;;;;;;13.07;10.25;;;10.50;99.90;;;;;;5093635;28;20043;-60
2021/10/18 01:33:09;;;;;;;12.15;10.60;;;10.50;99.90;;;;;;5095223;28;20510;-61
2021/10/18 01:35:35;;;;;;;13.35;10.68;;;10.50;99.90;;;;;;5089462;28;20460;-61
2021/10/18 01:38:01;;;;;;;10.73;9.63;;;10.50;99.90;;;;;;5089890;28;20053;-61
2021/10/18 01:40:27;;;;;;;12.40;10.07;;;10.50;99.90;;;;;;5092512;28;20046;-61
2021/10/18 01:42:54;;;;;;;12.93;11.57;;;10.50;99.90;;;;;;5090386;28;20040;-61
2021/10/18 01:45:21;;;;;;;14.65;11.07;;;10.50;99.90;;;;;;5090864;28;20404;-61
2021/10/18 01:47:47;;;;;;;13.00;11.05;;;10.50;99.90;;;;;;5092273;28;20093;-61
2021/10/18 01:50:19;;;;;;;14.82;11.95;;;10.50;99.90;;;;;;5087899;28;20043;-61
2021/10/18 01:52:46;;;;;;;13.00;11.60;;;10.50;99.90;;;;;;5090744;28;20086;-61
2021/10/18 01:55:13;;;;;;;13.65;11.52;;;10.40;99.90;;;;;;5090916;28;20028;-61
2021/10/18 01:57:39;;;;;;;13.00;11.27;;;10.50;99.90;;;;;;5092400;28;20127;-61
2021/10/18 02:00:06;;;;;;;13.40;11.48;;;10.50;99.90;;;;;;5091786;28;20044;-61
2021/10/18 02:02:31;;;;;;;13.25;11.65;;;10.40;99.90;;;;;;5090070;28;20036;-61
2021/10/18 02:04:57;;;;;;;14.35;12.05;;;10.40;99.90;;;;;;5089451;28;20710;-61
2021/10/18 02:07:22;;;;;;;15.75;11.68;;;10.40;99.90;;;;;;5088902;28;20032;-61
2021/10/18 02:09:48;;;;;;;17.52;12.30;;;10.40;99.90;;;;;;5091409;28;20044;-61
2021/10/18 02:12:14;;;;;;;14.80;12.93;;;10.40;99.90;;;;;;5092747;28;20097;-61
2021/10/18 02:14:40;;;;;;;13.77;11.00;;;10.40;99.90;;;;;;5091504;28;20489;-61
2021/10/18 02:17:05;;;;;;;13.77;11.27;;;10.40;99.90;;;;;;5091890;28;20043;-61
2021/10/18 02:19:31;;;;;;;14.32;12.82;;;10.40;99.90;;;;;;5090829;28;20028;-61
2021/10/18 02:21:56;;;;;;;14.18;12.70;;;10.40;99.90;;;;;;5088417;28;20135;-61
2021/10/18 02:24:22;;;;;;;16.52;12.65;;;10.40;99.90;;;;;;5087870;28;20049;-61
2021/10/18 02:26:47;;;;;;;17.05;12.30;;;10.30;99.90;;;;;;5086237;28;20386;-61
2021/10/18 02:29:13;;;;;;;17.45;12.23;;;10.30;99.90;;;;;;5089255;28;20047;-61
2021/10/18 02:31:39;;;;;;;15.77;12.43;;;10.30;99.90;;;;;;5090039;28;20425;-61
2021/10/18 02:34:04;;;;;;;14.48;12.98;;;10.30;99.90;;;;;;5091950;28;20036;-61
2021/10/18 02:36:31;;;;;;;15.32;13.52;;;10.30;99.90;;;;;;5088604;28;20367;-61
2021/10/18 02:38:57;;;;;;;16.73;13.25;;;10.30;99.90;;;;;;5085824;28;20167;-60
2021/10/18 02:41:23;;;;;;;19.02;13.13;;;10.20;99.90;;;;;;5088740;28;20070;-61
2021/10/18 02:43:49;;;;;;;16.80;13.68;;;10.20;99.90;;;;;;5090017;28;20036;-61
2021/10/18 02:46:15;;;;;;;14.73;12.93;;;10.20;99.90;;;;;;5087533;28;20131;-61
2021/10/18 02:48:43;;;;;;;16.15;12.82;;;10.20;99.90;;;;;;5089515;28;20039;-61
2021/10/18 02:51:08;;;;;;;16.45;13.55;;;10.10;99.90;;;;;;5086500;28;20688;-61
2021/10/18 02:53:34;;;;;;;15.20;13.45;;;10.10;99.90;;;;;;5089375;28;20056;-61
2021/10/18 02:56:00;;;;;;;18.08;13.07;;;10.00;99.90;;;;;;5090282;28;20054;-61
2021/10/18 02:58:25;;;;;;;16.00;13.52;;;10.00;99.90;;;;;;5089450;28;20035;-61
2021/10/18 03:00:51;;;;;;;14.68;12.70;;;10.00;99.90;;;;;;5090584;28;20192;-61
2021/10/18 03:03:16;;;;;;;17.05;14.15;;;9.90;99.90;;;;;;5091257;28;20043;-61
2021/10/18 03:05:42;;;;;;;18.50;13.65;;;9.90;99.90;;;;;;5089987;28;20408;-61
2021/10/18 03:08:07;;;;;;;16.90;13.90;;;9.80;99.90;;;;;;5089970;28;20436;-61
2021/10/18 03:10:33;;;;;;;17.58;15.48;;;9.70;99.90;;;;;;5089126;28;20112;-61
2021/10/18 03:12:59;;;;;;;16.48;14.82;;;9.60;99.90;;;;;;5091255;28;20032;-61
2021/10/18 03:15:24;;;;;;;17.02;13.68;;;9.60;99.90;;;;;;5088545;28;21834;-61
2021/10/18 03:17:51;;;;;;;15.98;14.27;;;9.60;99.90;;;;;;5091982;28;20101;-61
2021/10/18 03:20:17;;;;;;;21.20;14.68;;;9.60;99.90;;;;;;5091246;28;20047;-60
2021/10/18 03:22:42;;;;;;;16.40;14.65;;;9.50;99.90;;;;;;5087635;28;20036;-60
2021/10/18 03:25:09;;;;;;;16.60;14.65;;;9.50;99.90;;;;;;5085182;28;20036;-61
2021/10/18 03:27:36;;;;;;;17.05;14.25;;;9.50;99.90;;;;;;5088208;28;20044;-61
2021/10/18 03:30:02;;;;;;;18.75;14.60;;;9.50;99.90;;;;;;5090353;28;20123;-60
2021/10/18 03:32:28;;;;;;;20.02;14.82;;;9.50;99.90;;;;;;5090493;28;20036;-60
2021/10/18 03:34:53;;;;;;;19.17;15.63;;;9.40;99.90;;;;;;5090271;28;20052;-61
2021/10/18 03:37:19;;;;;;;17.77;15.60;;;9.40;99.90;;;;;;5090845;28;20055;-61
2021/10/18 03:39:44;;;;;;;20.73;15.05;;;9.40;99.90;;;;;;5088073;28;20046;-61
2021/10/18 03:42:10;;;;;;;17.52;15.40;;;9.40;99.90;;;;;;5090076;28;20142;-60
2021/10/18 03:44:35;;;;;;;18.70;15.25;;;9.30;99.90;;;;;;5090202;28;20048;-60
2021/10/18 03:47:01;;;;;;;18.92;15.50;;;9.30;99.90;;;;;;5086378;28;20051;-60
2021/10/18 03:49:26;;;;;;;16.60;14.80;;;9.30;99.90;;;;;;5086392;28;20040;-60
2021/10/18 03:51:52;;;;;;;17.50;15.60;;;9.20;99.90;;;;;;5088639;28;20055;-60
2021/10/18 03:54:18;;;;;;;20.20;16.05;;;9.10;99.90;;;;;;5088399;28;20047;-60
2021/10/18 03:56:43;;;;;;;17.73;15.07;;;9.10;99.90;;;;;;5090528;28;20496;-60
2021/10/18 03:59:09;;;;;;;21.13;15.48;;;9.00;99.90;;;;;;5086604;28;20692;-60
2021/10/18 04:01:34;;;;;;;18.38;15.70;;;8.90;99.90;;;;;;5087301;28;20474;-60
2021/10/18 04:04:00;;;;;;;17.48;15.13;;;8.80;99.90;;;;;;5087308;28;20060;-60
2021/10/18 04:06:25;;;;;;;19.13;15.73;;;8.70;99.90;;;;;;5087335;28;20115;-60
2021/10/18 04:08:53;;;;;;;20.10;16.00;;;8.70;99.90;;;;;;5089757;28;20458;-60
2021/10/18 04:11:19;;;;;;;18.48;16.42;;;8.60;99.90;;;;;;5089256;28;20067;-60
2021/10/18 04:13:45;;;;;;;20.65;15.43;;;8.50;99.90;;;;;;5086952;28;20075;-60
2021/10/18 04:16:11;;;;;;;18.25;15.77;;;8.50;99.90;;;;;;5090583;28;20040;-60
2021/10/18 04:18:37;;;;;;;17.85;16.05;;;8.40;99.90;;;;;;5089545;28;20051;-60
2021/10/18 04:21:05;;;;;;;18.00;16.10;;;8.40;99.90;;;;;;5086545;28;20378;-60
2021/10/18 04:23:31;;;;;;;19.77;16.60;;;8.30;99.90;;;;;;5086966;28;20040;-60
2021/10/18 04:25:56;;;;;;;18.85;16.10;;;8.30;99.90;;;;;;5089777;28;20393;-60
2021/10/18 04:28:22;;;;;;;19.90;16.17;;;8.20;99.90;;;;;;5090462;28;20044;-60
2021/10/18 04:30:47;;;;;;;18.65;16.73;;;8.20;99.90;;;;;;5093178;28;20040;-60
2021/10/18 04:33:13;;;;;;;20.83;17.92;;;8.10;99.90;;;;;;5090631;28;20043;-60
2021/10/18 04:35:39;;;;;;;20.02;15.73;;;8.10;99.90;;;;;;5089002;28;20032;-60
2021/10/18 04:38:05;;;;;;;20.73;16.67;;;8.10;99.90;;;;;;5085365;28;20051;-60
2021/10/18 04:40:30;;;;;;;22.58;17.65;;;8.00;99.90;;;;;;5086137;28;20492;-60
2021/10/18 04:42:56;;;;;;;20.27;17.17;;;8.00;99.90;;;;;;5088350;28;20070;-60
2021/10/18 04:45:22;;;;;;;20.70;16.70;;;8.00;99.90;;;;;;5089614;28;20028;-60
2021/10/18 04:47:51;;;;;;;22.75;16.88;;;7.90;99.90;;;;;;5088258;28;20033;-60
2021/10/18 04:50:18;;;;;;;19.77;17.10;;;7.90;99.90;;;;;;5084721;28;20492;-60
2021/10/18 04:52:44;;;;;;;20.02;17.13;;;7.80;99.90;;;;;;5089720;28;20490;-60
2021/10/18 04:55:09;;;;;;;18.60;16.58;;;7.80;99.90;;;;;;5087761;28;20050;-60
2021/10/18 04:57:48;;;;;;;21.58;17.33;;;7.80;99.90;;;;;;5088496;28;20047;-60
2021/10/18 05:00:13;;;;;;;19.90;17.65;;;7.70;99.90;;;;;;5087823;28;20052;-60
2021/10/18 05:02:39;;;;;;;20.92;18.65;;;7.70;99.90;;;;;;5091945;28;20039;-60
2021/10/18 05:05:05;;;;;;;21.17;17.48;;;7.70;99.90;;;;;;5093313;28;20040;-60
2021/10/18 05:07:30;;;;;;;21.77;18.05;;;7.70;99.90;;;;;;5091179;28;20039;-60
2021/10/18 05:09:56;;;;;;;20.15;17.17;;;7.70;99.90;;;;;;5087165;28;20040;-60
2021/10/18 05:12:21;;;;;;;18.98;16.83;;;7.70;99.90;;;;;;5090602;28;20388;-61
2021/10/18 05:14:47;;;;;;;24.70;18.08;;;7.70;99.90;;;;;;5092825;28;20039;-60
2021/10/18 05:17:12;;;;;;;27.25;19.23;;;7.70;99.90;;;;;;5094030;28;20245;-60
2021/10/18 05:19:38;;;;;;;19.73;17.45;;;7.80;99.90;;;;;;5094880;28;20036;-60
2021/10/18 05:22:03;;;;;;;21.98;19.48;;;7.80;99.90;;;;;;5094162;28;20050;-60
2021/10/18 05:24:29;;;;;;;22.23;18.65;;;7.80;99.90;;;;;;5089052;28;20046;-60
2021/10/18 05:26:54;;;;;;;24.33;19.35;;;7.80;99.90;;;;;;5086296;28;20044;-60
2021/10/18 05:29:21;;;;;;;21.13;18.83;;;7.80;99.90;;;;;;5093970;28;20089;-60
2021/10/18 05:31:47;;;;;;;23.65;19.42;;;7.80;99.90;;;;;;5091093;28;20119;-60
2021/10/18 05:34:12;;;;;;;20.92;18.35;;;7.70;99.90;;;;;;5093982;28;20135;-60
2021/10/18 05:36:38;;;;;;;22.92;18.38;;;7.70;99.90;;;;;;5094197;28;20119;-60
2021/10/18 05:39:04;;;;;;;24.02;20.13;;;7.70;99.90;;;;;;5085769;28;20040;-60
2021/10/18 05:41:29;;;;;;;22.50;19.88;;;7.60;99.90;;;;;;5090974;28;20393;-60
2021/10/18 05:43:55;;;;;;;23.60;19.52;;;7.60;99.90;;;;;;5089096;28;20502;-60
2021/10/18 05:46:20;;;;;;;21.55;18.65;;;7.60;99.90;;;;;;5092762;28;20119;-60
2021/10/18 05:48:46;;;;;;;22.17;19.02;;;7.60;99.90;;;;;;5093663;28;20123;-60
2021/10/18 05:51:11;;;;;;;23.40;18.80;;;7.60;99.90;;;;;;5084568;28;20135;-60
2021/10/18 05:53:37;;;;;;;24.23;20.75;;;7.50;99.90;;;;;;5077081;28;20054;-60
2021/10/18 05:56:03;;;;;;;23.20;20.40;;;7.50;99.90;;;;;;5093055;28;20296;-60
2021/10/18 05:58:28;;;;;;;27.60;20.50;;;7.50;99.90;;;;;;5092976;28;20139;-60
2021/10/18 06:00:54;;;;;;;23.23;19.63;;;7.60;99.90;;;;;;5092195;28;20047;-60
2021/10/18 06:03:19;;;;;;;25.70;20.77;;;7.60;99.90;;;;;;5091551;28;20120;-60
2021/10/18 06:05:46;;;;;;;22.92;20.33;;;7.60;99.90;;;;;;5088610;28;20036;-60
2021/10/18 06:08:13;;;;;;;24.17;20.83;;;7.60;99.90;;;;;;5092674;28;20036;-64
2021/10/18 06:10:39;;;;;;;26.83;21.42;;;7.60;99.90;;;;;;5091840;28;20109;-64
2021/10/18 06:13:05;;;;;;;26.67;22.48;;;7.60;99.90;;;;;;5091957;28;20061;-65
2021/10/18 06:15:32;;;;;;;24.33;21.60;;;7.70;99.90;;;;;;5089635;28;20035;-62
2021/10/18 06:18:07;;;;;;;26.75;21.13;;;7.70;99.90;;;;;;5091662;28;20081;-60
2021/10/18 06:20:32;;;;;;;23.52;20.42;;;7.70;99.90;;;;;;5089759;28;20071;-60
2021/10/18 06:22:58;;;;;;;28.35;22.65;;;7.80;99.90;;;;;;5089922;28;20480;-60
2021/10/18 06:25:25;;;;;;;29.52;21.63;;;7.90;99.90;;;;;;5091173;28;20039;-60
2021/10/18 06:27:50;;;;;;;29.45;23.67;;;7.90;99.90;;;;;;5091920;28;20051;-60
2021/10/18 06:30:16;;;;;;;29.63;23.70;;;7.90;99.90;;;;;;5087366;28;20066;-61
2021/10/18 06:32:41;;;;;;;29.50;24.55;;;8.00;99.90;;;;;;5087553;28;20051;-60
2021/10/18 06:35:07;;;;;;;29.83;25.10;;;8.10;99.90;;;;;;5089791;28;20036;-61
2021/10/18 06:37:33;;;;;;;27.23;24.33;;;8.10;99.90;;;;;;5088878;28;20279;-60
2021/10/18 06:39:59;;;;;;;31.60;25.05;;;8.20;99.90;;;;;;5090438;28;20492;-60
2021/10/18 06:42:24;;;;;;;29.65;25.00;;;8.30;99.90;;;;;;5087697;28;20393;-60
2021/10/18 06:44:50;;;;;;;27.88;24.67;;;8.30;99.90;;;;;;5087995;28;20051;-60
2021/10/18 06:47:17;;;;;;;31.25;25.45;;;8.40;99.90;;;;;;5087861;28;20040;-60
2021/10/18 06:49:42;;;;;;;29.27;26.13;;;8.50;99.90;;;;;;5071443;28;20036;-60
2021/10/18 06:52:08;;;;;;;28.70;24.55;;;8.60;99.90;;;;;;5088502;28;20186;-61
2021/10/18 06:54:37;;;;;;;30.30;25.65;;;8.60;99.90;;;;;;5089855;28;20040;-60
2021/10/18 06:57:03;;;;;;;27.35;23.75;;;8.70;99.90;;;;;;5089018;28;20114;-60
2021/10/18 06:59:29;;;;;;;27.23;23.67;;;8.80;99.90;;;;;;5098357;28;20071;-60
2021/10/18 07:01:54;;;;;;;27.27;24.30;;;8.90;99.90;;;;;;5084998;28;20072;-60
2021/10/18 07:04:22;;;;;;;29.27;25.20;;;9.00;99.90;;;;;;5084463;28;20708;-61
2021/10/18 07:06:48;;;;;;;31.40;25.00;;;9.00;99.90;;;;;;5092554;28;20115;-60
2021/10/18 07:09:14;;;;;;;28.02;24.48;;;9.10;99.90;;;;;;5092613;28;20120;-60
2021/10/18 07:11:39;;;;;;;27.08;24.13;;;9.20;99.90;;;;;;5092393;28;20047;-61
2021/10/18 07:14:05;;;;;;;25.42;22.73;;;9.30;99.90;;;;;;5088431;28;20119;-61
2021/10/18 07:16:30;;;;;;;29.65;23.92;;;9.30;99.90;;;;;;5091759;28;20040;-61
2021/10/18 07:18:56;;;;;;;28.98;23.85;;;9.40;99.90;;;;;;5090089;28;20046;-61
2021/10/18 07:21:22;;;;;;;26.80;21.20;;;9.50;99.90;;;;;;5087813;28;20127;-61
2021/10/18 07:23:51;;;;;;;26.58;22.80;;;9.50;99.90;;;;;;5095148;28;20114;-61
2021/10/18 07:26:18;;;;;;;28.50;23.67;;;9.60;99.90;;;;;;5089982;28;20063;-60
2021/10/18 07:28:43;;;;;;;26.15;23.20;;;9.70;99.90;;;;;;5091130;28;20040;-60
2021/10/18 07:31:09;;;;;;;28.90;23.98;;;9.80;99.90;;;;;;5092630;28;20393;-61
2021/10/18 07:33:35;;;;;;;27.08;23.70;;;9.90;99.90;;;;;;5092617;28;20040;-61
2021/10/18 07:36:08;;;;;;;27.40;24.10;;;9.90;99.90;;;;;;5090124;28;20542;-62
2021/10/18 07:38:36;;;;;;;29.25;25.40;;;10.00;99.90;;;;;;5070427;28;20044;-63
2021/10/18 07:41:02;;;;;;;32.60;29.30;;;10.10;99.90;;;;;;5087202;28;20047;-62
2021/10/18 07:43:28;;;;;;;30.52;26.40;;;10.20;99.90;;;;;;5090306;28;20036;-63
2021/10/18 07:45:53;;;;;;;26.02;21.85;;;10.30;99.90;;;;;;5090506;28;20044;-63
2021/10/18 07:48:19;;;;;;;23.73;21.10;;;10.40;99.90;;;;;;5090613;28;20036;-63
2021/10/18 07:50:44;;;;;;;23.50;21.10;;;10.50;99.90;;;;;;5091645;28;20169;-63
2021/10/18 07:53:10;;;;;;;24.13;21.50;;;10.60;99.90;;;;;;5091621;28;20093;-63
2021/10/18 07:55:37;;;;;;;23.30;20.80;;;10.70;99.90;;;;;;5090234;28;20055;-63
2021/10/18 07:58:03;;;;;;;24.33;20.73;;;10.70;99.90;;;;;;5090417;28;20059;-63
2021/10/18 08:00:28;;;;;;;23.92;20.95;;;10.90;99.90;;;;;;5091533;28;20123;-63
2021/10/18 08:02:54;;;;;;;23.50;21.00;;;10.90;99.90;;;;;;5091616;28;20114;-63
2021/10/18 08:05:20;;;;;;;21.60;19.42;;;11.00;99.90;;;;;;5091657;28;20508;-63
2021/10/18 08:07:51;;;;;;;23.25;20.27;;;11.10;99.90;;;;;;5091651;28;20103;-63
2021/10/18 08:10:24;;;;;;;21.80;19.50;;;11.20;99.90;;;;;;5091607;28;20058;-64
2021/10/18 08:12:55;;;;;;;22.27;19.80;;;11.20;99.90;;;;;;5084303;28;20521;-64
2021/10/18 08:15:22;;;;;;;22.65;20.30;;;11.30;99.90;;;;;;5078722;28;20060;-63
2021/10/18 08:17:49;;;;;;;21.17;18.95;;;11.30;99.90;;;;;;5071151;28;20462;-63
2021/10/18 08:20:15;;;;;;;22.65;19.58;;;11.40;99.90;;;;;;5091281;28;20043;-63
2021/10/18 08:22:41;;;;;;;25.73;19.73;;;11.50;99.90;;;;;;5091190;28;20047;-63
2021/10/18 08:25:08;;;;;;;25.48;20.92;;;11.50;99.90;;;;;;5089969;28;20044;-62
2021/10/18 08:27:33;;;;;;;21.42;18.70;;;11.50;99.90;;;;;;5088128;28;20796;-62
2021/10/18 08:29:59;;;;;;;22.55;19.10;;;11.60;99.90;;;;;;5087592;28;20047;-62
2021/10/18 08:32:25;;;;;;;24.25;19.52;;;11.60;99.90;;;;;;5090169;28;20052;-62
2021/10/18 08:34:51;;;;;;;24.23;20.90;;;11.70;99.90;;;;;;5079806;28;20037;-62
2021/10/18 08:37:16;;;;;;;24.45;20.15;;;11.70;99.90;;;;;;5091820;28;20048;-63
2021/10/18 08:42:29;;;;;;;23.70;20.77;;;11.80;99.90;;;;;;5094995;28;20167;-62
2021/10/18 08:44:55;;;;;;;22.30;18.67;;;11.80;99.90;;;;;;5070891;28;20385;-62
2021/10/18 08:47:26;;;;;;;24.00;20.60;;;11.90;99.90;;;;;;5085606;28;20028;-62
2021/10/18 08:49:52;;;;;;;23.02;20.35;;;11.90;99.90;;;;;;5095132;28;20036;-62
2021/10/18 08:52:20;;;;;;;23.30;20.17;;;11.90;99.90;;;;;;5088147;28;20163;-62
2021/10/18 08:54:46;;;;;;;25.70;21.70;;;12.00;99.90;;;;;;5095253;28;20044;-62
2021/10/18 08:57:12;;;;;;;22.10;19.73;;;12.00;99.90;;;;;;5095127;28;20580;-62
2021/10/18 08:59:37;;;;;;;22.63;20.40;;;12.10;99.90;;;;;;5095054;28;20044;-62
2021/10/18 09:02:03;;;;;;;23.30;20.85;;;12.20;99.90;;;;;;5094834;28;20048;-62
2021/10/18 09:04:37;;;;;;;24.25;19.98;;;12.20;99.90;;;;;;5093639;28;20055;-63
2021/10/18 09:07:16;;;;;;;23.88;19.25;;;12.20;99.90;;;;;;5080593;28;20040;-62
2021/10/18 09:09:44;;;;;;;24.05;20.80;;;12.30;99.90;;;;;;5095064;28;20051;-62
2021/10/18 09:12:26;;;;;;;22.40;20.05;;;12.40;99.90;;;;;;5094739;28;20044;-62
2021/10/18 09:14:52;;;;;;;22.67;20.27;;;12.40;99.90;;;;;;5094698;28;20047;-62
2021/10/18 09:17:34;;;;;;;23.50;20.98;;;12.50;99.90;;;;;;5094710;28;20570;-62
2021/10/18 09:20:32;;;;;;;24.30;20.48;;;12.60;99.90;;;;;;5094496;28;20539;-62
2021/10/18 09:23:17;;;;;;;23.02;20.40;;;12.70;99.90;;;;;;5081092;28;20044;-62
2021/10/18 09:25:43;;;;;;;23.95;21.35;;;12.70;99.90;;;;;;5074481;28;20390;-62
2021/10/18 09:28:14;;;;;;;23.95;21.42;;;12.80;99.90;;;;;;5090694;28;20047;-62
2021/10/18 09:30:49;;;;;;;21.00;18.40;;;12.90;99.90;;;;;;5092950;28;20050;-62
2021/10/18 09:33:31;;;;;;;22.98;19.80;;;13.00;99.90;;;;;;5091234;28;20347;-62
2021/10/18 09:35:58;;;;;;;21.10;18.90;;;13.00;99.90;;;;;;5092888;28;20036;-62
2021/10/18 09:38:24;;;;;;;21.88;19.27;;;13.10;99.90;;;;;;5083906;28;20050;-62
2021/10/18 09:40:53;;;;;;;20.65;18.55;;;13.20;99.90;;;;;;5073841;28;20037;-62
2021/10/18 09:43:29;;;;;;;21.77;18.90;;;13.30;99.90;;;;;;5074976;28;20039;-63
2021/10/18 10:53:26;;;;;;;17.38;15.52;;;14.40;99.90;;;;;;5091742;28;20056;-63
2021/10/18 10:55:55;;;;;;;19.33;17.30;;;14.40;99.90;;;;;;5091540;28;20431;-63
2021/10/18 10:58:30;;;;;;;19.65;16.48;;;14.40;99.90;;;;;;5073708;28;20554;-63
2021/10/18 11:00:56;;;;;;;18.48;16.27;;;14.50;99.90;;;;;;5091065;28;20126;-63
2021/10/18 11:03:35;;;;;;;19.50;16.33;;;14.50;99.90;;;;;;5092790;28;20123;-63
2021/10/18 11:08:47;;;;;;;17.45;15.60;;;14.60;99.90;;;;;;5046191;28;20053;-63
2021/10/18 11:11:17;;;;;;;18.70;16.70;;;14.70;99.90;;;;;;5047978;28;20114;-63
2021/10/18 11:14:00;;;;;;;18.65;15.07;;;14.70;99.90;;;;;;5015485;28;20446;-63
2021/10/18 11:16:31;;;;;;;17.45;15.65;;;14.80;99.90;;;;;;5051223;28;20090;-63
2021/10/18 11:19:01;;;;;;;19.60;15.63;;;14.90;99.90;;;;;;5051826;28;20402;-63
2021/10/18 11:21:35;;;;;;;17.05;14.82;;;14.90;99.90;;;;;;5040830;28;20049;-63
2021/10/18 11:24:03;;;;;;;18.75;16.05;;;14.80;99.90;;;;;;5046838;28;20044;-63
2021/10/18 11:26:32;;;;;;;16.65;14.25;;;14.80;99.90;;;;;;5048305;28;20049;-63
2021/10/18 11:29:00;;;;;;;17.58;15.50;;;14.80;99.90;;;;;;5031809;28;20049;-63
2021/10/18 11:31:48;;;;;;;17.63;15.68;;;14.80;99.90;;;;;;5037630;28;20041;-63
2021/10/18 11:34:21;;;;;;;17.30;15.45;;;14.70;99.90;;;;;;5051735;28;20041;-63
2021/10/18 11:36:51;;;;;;;19.02;14.70;;;14.70;99.90;;;;;;5044400;28;20095;-63
2021/10/18 11:39:17;;;;;;;17.02;15.23;;;14.70;99.90;;;;;;5032891;28;20548;-63
2021/10/18 11:41:58;;;;;;;18.50;15.38;;;14.70;99.90;;;;;;5037721;28;20537;-63
2021/10/18 11:44:40;;;;;;;18.23;16.23;;;14.70;99.90;;;;;;5049768;28;20055;-63
2021/10/18 11:47:34;;;;;;;19.08;17.13;;;14.70;99.90;;;;;;5048255;28;20140;-63
2021/10/18 11:50:15;;;;;;;19.10;16.25;;;14.80;99.90;;;;;;5013792;28;20041;-63
2021/10/18 11:53:02;;;;;;;18.85;16.23;;;14.90;99.90;;;;;;5035140;28;20456;-63
2021/10/18 11:55:29;;;;;;;18.08;16.17;;;15.00;99.90;;;;;;5047179;28;20056;-63
2021/10/18 11:57:57;;;;;;;18.77;16.58;;;15.00;99.90;;;;;;5050992;28;20037;-63
2021/10/18 12:00:29;;;;;;;18.23;16.33;;;15.00;99.90;;;;;;5050063;28;20041;-63
2021/10/18 12:03:01;;;;;;;18.10;15.90;;;15.00;99.90;;;;;;5049681;28;20073;-63
2021/10/18 12:05:49;;;;;;;18.55;16.65;;;15.00;99.90;;;;;;5043158;28;20470;-63
2021/10/18 12:08:17;;;;;;;17.02;15.27;;;14.90;99.90;;;;;;5031027;28;20088;-63
2021/10/18 12:10:51;;;;;;;18.20;16.20;;;14.90;99.90;;;;;;5041873;28;20040;-63
2021/10/18 12:13:28;;;;;;;17.63;15.32;;;14.90;99.90;;;;;;5033096;28;20509;-63
2021/10/18 12:15:57;;;;;;;16.90;14.82;;;14.90;99.90;;;;;;5048614;28;20615;-63
2021/10/18 12:18:28;;;;;;;17.40;15.18;;;15.00;99.90;;;;;;5050085;28;20102;-63
2021/10/18 12:20:58;;;;;;;18.15;16.00;;;15.00;99.90;;;;;;5050908;28;20344;-63
2021/10/18 12:23:35;;;;;;;17.02;14.98;;;15.00;99.90;;;;;;5035781;28;20033;-63
2021/10/18 12:26:04;;;;;;;18.23;15.18;;;15.00;99.90;;;;;;5041951;28;20048;-63
2021/10/18 12:28:40;;;;;;;17.75;15.35;;;15.10;99.90;;;;;;5013327;28;20042;-63
2021/10/18 12:31:22;;;;;;;17.33;15.52;;;15.10;99.90;;;;;;5039987;28;20132;-63
2021/10/18 12:34:13;;;;;;;16.23;14.43;;;15.10;99.90;;;;;;5050298;28;20056;-63
2021/10/18 12:36:57;;;;;;;17.27;15.18;;;15.10;99.90;;;;;;5033290;28;20363;-63
2021/10/18 12:39:43;;;;;;;17.70;15.25;;;15.10;99.90;;;;;;5044337;28;20045;-63
2021/10/18 12:42:11;;;;;;;16.58;14.50;;;15.10;99.90;;;;;;5040804;28;20040;-63
2021/10/18 12:44:48;;;;;;;18.10;16.05;;;15.20;99.90;;;;;;5033337;28;20041;-63
2021/10/18 12:47:17;;;;;;;16.60;14.85;;;15.20;99.90;;;;;;5039690;28;20033;-63
2021/10/18 12:49:52;;;;;;;16.20;14.50;;;15.20;99.90;;;;;;5049007;28;20394;-63
2021/10/18 12:52:31;;;;;;;16.48;14.45;;;15.20;99.90;;;;;;5050319;28;20048;-63
2021/10/18 12:54:57;;;;;;;18.05;14.82;;;15.30;99.90;;;;;;5049424;28;20056;-63
2021/10/18 12:57:25;;;;;;;16.17;14.40;;;15.20;99.90;;;;;;5035759;28;20117;-63
2021/10/18 13:00:09;;;;;;;15.38;12.63;;;15.10;99.90;;;;;;5034529;28;20042;-63
2021/10/18 13:02:39;;;;;;;14.30;12.80;;;15.10;99.90;;;;;;5013304;28;20085;-63
2021/10/18 13:05:05;;;;;;;16.83;13.60;;;15.10;99.90;;;;;;5038974;28;20090;-63
2021/10/18 13:07:54;;;;;;;15.75;12.68;;;15.00;99.90;;;;;;5049766;28;20049;-63
2021/10/18 13:10:22;;;;;;;14.82;12.15;;;15.00;99.90;;;;;;5050409;28;20084;-63
2021/10/18 13:12:48;;;;;;;13.15;11.75;;;15.10;99.90;;;;;;5050009;28;20396;-63
2021/10/18 13:15:17;;;;;;;15.30;12.27;;;15.10;99.90;;;;;;5041963;28;20037;-63
2021/10/18 13:17:43;;;;;;;19.20;12.25;;;15.10;99.90;;;;;;5030464;28;20045;-63
2021/10/18 13:20:09;;;;;;;13.38;11.35;;;15.10;99.90;;;;;;5038133;28;20044;-63
2021/10/18 13:22:35;;;;;;;14.95;12.10;;;15.10;99.90;;;;;;5052015;28;20045;-63
2021/10/18 13:25:02;;;;;;;15.90;12.40;;;15.00;99.90;;;;;;5052680;28;20842;-63
2021/10/18 13:27:27;;;;;;;15.02;11.68;;;15.00;99.90;;;;;;5052799;28;20071;-63
2021/10/18 13:29:53;;;;;;;14.52;11.70;;;15.10;99.90;;;;;;5051512;28;20118;-63
2021/10/18 13:32:19;;;;;;;16.33;11.77;;;15.10;99.90;;;;;;5041729;28;20048;-63
2021/10/18 13:34:44;;;;;;;13.15;9.68;;;15.00;99.90;;;;;;5039153;28;20037;-63
2021/10/18 13:37:11;;;;;;;12.25;10.90;;;15.10;99.90;;;;;;5035080;28;20564;-63
2021/10/18 13:39:41;;;;;;;12.55;11.25;;;15.00;99.90;;;;;;5052529;28;20045;-63
2021/10/18 13:42:07;;;;;;;12.35;10.02;;;15.10;99.90;;;;;;5027108;28;20491;-63
2021/10/18 13:44:34;;;;;;;12.73;11.43;;;15.10;99.90;;;;;;5032513;28;20044;-63
2021/10/18 13:47:00;;;;;;;14.02;11.35;;;15.10;99.90;;;;;;5037357;28;20048;-63